createdAt,value
2018-02-01T00:01:22.835Z,9.80
2018-02-01T00:03:53.944Z,9.78
2018-02-01T00:06:25.060Z,9.76
2018-02-01T00:08:56.158Z,9.83
2018-02-01T00:11:27.272Z,9.80
2018-02-01T00:13:58.371Z,9.77
2018-02-01T00:16:29.471Z,9.71
2018-02-01T00:19:00.521Z,9.73
2018-02-01T00:21:31.676Z,9.67
2018-02-01T00:24:02.733Z,9.67
2018-02-01T00:26:33.805Z,9.73
2018-02-01T00:29:04.833Z,9.69
2018-02-01T00:31:35.877Z,9.72
2018-02-01T00:34:06.978Z,9.70
2018-02-01T00:36:38.110Z,9.70
2018-02-01T00:39:09.222Z,9.67
2018-02-01T00:41:40.425Z,9.58
2018-02-01T00:44:11.447Z,9.60
2018-02-01T00:46:42.551Z,9.53
2018-02-01T00:49:13.623Z,9.56
2018-02-01T00:51:44.744Z,9.60
2018-02-01T00:54:15.812Z,9.54
2018-02-01T00:56:46.933Z,9.54
2018-02-01T00:59:17.985Z,9.63
2018-02-01T01:01:49.139Z,9.71
2018-02-01T01:04:20.207Z,9.69
2018-02-01T01:06:51.332Z,9.70
2018-02-01T01:09:22.431Z,9.68
2018-02-01T01:11:53.556Z,9.68
2018-02-01T01:14:24.602Z,9.65
2018-02-01T01:16:55.689Z,9.67
2018-02-01T01:19:26.772Z,9.67
2018-02-01T01:21:57.995Z,9.61
2018-02-01T01:24:29.043Z,9.56
2018-02-01T01:27:00.128Z,9.57
2018-02-01T01:29:31.162Z,9.59
2018-02-01T01:32:02.474Z,9.61
2018-02-01T01:34:33.575Z,9.60
2018-02-01T01:37:04.691Z,9.53
2018-02-01T01:39:35.721Z,9.47
2018-02-01T01:42:06.867Z,9.52
2018-02-01T01:44:37.931Z,9.53
2018-02-01T01:47:09.019Z,9.54
2018-02-01T01:49:40.101Z,9.49
2018-02-01T01:52:11.187Z,9.55
2018-02-01T01:54:42.242Z,9.60
2018-02-01T01:57:13.314Z,9.54
2018-02-01T01:59:44.456Z,9.61
2018-02-01T02:02:15.506Z,9.54
2018-02-01T02:04:46.619Z,9.52
2018-02-01T02:07:17.936Z,9.60
2018-02-01T02:09:48.996Z,9.58
2018-02-01T02:12:20.086Z,9.54
2018-02-01T02:14:51.182Z,9.45
2018-02-01T02:17:22.227Z,9.37
2018-02-01T02:19:53.308Z,9.43
2018-02-01T02:22:24.440Z,9.47
2018-02-01T02:24:55.539Z,9.46
2018-02-01T02:27:26.641Z,9.42
2018-02-01T02:29:58.475Z,9.44
2018-02-01T02:32:29.592Z,9.46
2018-02-01T02:35:00.706Z,9.43
2018-02-01T02:37:31.819Z,9.38
2018-02-01T02:40:02.894Z,9.45
2018-02-01T02:42:34.055Z,9.50
2018-02-01T02:45:05.131Z,9.54
2018-02-01T02:47:36.241Z,9.56
2018-02-01T02:50:07.293Z,9.50
2018-02-01T02:52:38.377Z,9.41
2018-02-01T02:55:09.505Z,9.38
2018-02-01T02:57:40.549Z,9.44
2018-02-01T03:00:11.784Z,9.48
2018-02-01T03:02:42.926Z,9.48
2018-02-01T03:05:13.980Z,9.39
2018-02-01T03:07:45.087Z,9.33
2018-02-01T03:10:16.195Z,9.38
2018-02-01T03:12:47.343Z,9.32
2018-02-01T03:15:18.425Z,9.41
2018-02-01T03:17:49.550Z,9.44
2018-02-01T03:20:20.908Z,9.46
2018-02-01T03:22:52.052Z,9.40
2018-02-01T03:25:23.130Z,9.42
2018-02-01T03:27:54.235Z,9.39
2018-02-01T03:30:25.307Z,9.43
2018-02-01T03:32:56.483Z,9.52
2018-02-01T03:35:27.522Z,9.46
2018-02-01T03:37:58.603Z,9.47
2018-02-01T03:40:29.755Z,9.50
2018-02-01T03:43:00.939Z,9.56
2018-02-01T03:45:32.120Z,9.52
2018-02-01T03:48:03.192Z,9.37
2018-02-01T03:50:34.355Z,9.34
2018-02-01T03:53:05.477Z,9.48
2018-02-01T03:55:36.587Z,9.48
2018-02-01T03:58:07.646Z,9.42
2018-02-01T04:00:38.780Z,9.33
2018-02-01T04:03:09.855Z,9.20
2018-02-01T04:05:40.921Z,9.13
2018-02-01T04:08:11.991Z,9.16
2018-02-01T04:10:43.098Z,9.04
2018-02-01T04:13:14.149Z,8.93
2018-02-01T04:15:45.267Z,8.94
2018-02-01T04:18:16.327Z,8.97
2018-02-01T04:20:47.456Z,8.98
2018-02-01T04:23:18.516Z,9.02
2018-02-01T04:25:49.612Z,9.01
2018-02-01T04:28:20.683Z,8.97
2018-02-01T04:30:51.801Z,9.03
2018-02-01T04:33:22.848Z,8.82
2018-02-01T04:35:53.978Z,8.69
2018-02-01T04:38:25.040Z,8.59
2018-02-01T04:40:56.155Z,8.58
2018-02-01T04:43:27.260Z,8.62
2018-02-01T04:45:58.547Z,8.60
2018-02-01T04:48:29.590Z,8.60
2018-02-01T04:51:01.225Z,8.62
2018-02-01T04:53:32.416Z,8.66
2018-02-01T04:56:03.480Z,8.69
2018-02-01T04:58:34.606Z,8.65
2018-02-01T05:01:05.704Z,8.63
2018-02-01T05:03:36.800Z,8.56
2018-02-01T05:06:07.863Z,8.55
2018-02-01T05:08:38.983Z,8.56
2018-02-01T05:11:09.999Z,8.50
2018-02-01T05:13:41.092Z,8.37
2018-02-01T05:16:12.166Z,8.29
2018-02-01T05:18:43.247Z,8.29
2018-02-01T05:21:14.299Z,8.32
2018-02-01T05:23:45.417Z,8.33
2018-02-01T05:26:16.483Z,8.39
2018-02-01T05:28:47.740Z,8.44
2018-02-01T05:31:18.806Z,8.47
2018-02-01T05:33:49.994Z,8.45
2018-02-01T05:36:21.087Z,8.41
2018-02-01T05:38:52.190Z,8.38
2018-02-01T05:41:23.289Z,8.38
2018-02-01T05:43:54.384Z,8.43
2018-02-01T05:46:25.477Z,8.34
2018-02-01T05:48:56.598Z,8.30
2018-02-01T05:51:27.626Z,8.20
2018-02-01T05:53:58.782Z,8.29
2018-02-01T05:56:29.856Z,8.33
2018-02-01T05:59:00.938Z,8.29
2018-02-01T06:01:32.088Z,8.25
2018-02-01T06:04:03.151Z,8.21
2018-02-01T06:06:34.333Z,8.16
2018-02-01T06:09:05.409Z,8.15
2018-02-01T06:11:36.509Z,8.21
2018-02-01T06:14:07.595Z,8.21
2018-02-01T06:16:38.697Z,8.18
2018-02-01T06:19:09.782Z,8.13
2018-02-01T06:21:40.877Z,8.14
2018-02-01T06:24:11.991Z,8.11
2018-02-01T06:26:43.121Z,8.12
2018-02-01T06:29:14.178Z,8.14
2018-02-01T06:31:45.271Z,8.04
2018-02-01T06:34:16.306Z,8.05
2018-02-01T06:36:47.373Z,8.07
2018-02-01T06:39:18.402Z,8.16
2018-02-01T06:41:49.502Z,8.17
2018-02-01T06:44:20.595Z,8.18
2018-02-01T06:46:51.736Z,8.11
2018-02-01T06:49:22.794Z,8.06
2018-02-01T06:51:53.895Z,8.04
2018-02-01T06:54:24.937Z,8.06
2018-02-01T06:56:56.052Z,7.91
2018-02-01T06:59:27.123Z,7.79
2018-02-01T07:01:58.230Z,7.79
2018-02-01T07:04:29.358Z,7.87
2018-02-01T07:07:00.460Z,7.99
2018-02-01T07:09:31.602Z,8.06
2018-02-01T07:12:02.654Z,8.10
2018-02-01T07:14:33.768Z,8.11
2018-02-01T07:17:04.828Z,8.12
2018-02-01T07:19:35.904Z,8.08
2018-02-01T07:22:07.091Z,8.08
2018-02-01T07:24:38.131Z,8.13
2018-02-01T07:27:09.237Z,8.17
2018-02-01T07:29:40.327Z,8.21
2018-02-01T07:32:11.500Z,8.27
2018-02-01T07:34:42.535Z,8.30
2018-02-01T07:37:13.643Z,8.29
2018-02-01T07:39:44.698Z,8.34
2018-02-01T07:42:15.748Z,8.48
2018-02-01T07:44:46.799Z,8.66
2018-02-01T07:47:17.934Z,8.66
2018-02-01T07:49:49.062Z,8.64
2018-02-01T07:52:20.128Z,8.59
2018-02-01T07:54:52.136Z,8.65
2018-02-01T07:57:23.208Z,8.69
2018-02-01T07:59:54.327Z,8.52
2018-02-01T08:02:25.471Z,8.58
2018-02-01T08:04:56.569Z,8.67
2018-02-01T08:07:27.621Z,8.56
2018-02-01T08:09:58.797Z,8.52
2018-02-01T08:12:36.757Z,8.49
2018-02-01T08:15:07.882Z,8.42
2018-02-01T08:17:39.728Z,8.30
2018-02-01T08:20:10.808Z,8.24
2018-02-01T08:22:41.943Z,8.20
2018-02-01T08:25:13.036Z,8.22
2018-02-01T08:27:44.121Z,8.16
2018-02-01T08:30:15.158Z,8.36
2018-02-01T08:32:46.275Z,8.47
2018-02-01T08:35:17.376Z,8.46
2018-02-01T08:37:48.480Z,8.53
2018-02-01T08:40:19.587Z,8.39
2018-02-01T08:42:50.739Z,8.30
2018-02-01T08:45:21.834Z,8.29
2018-02-01T08:47:52.935Z,8.27
2018-02-01T08:50:23.975Z,8.21
2018-02-01T08:52:55.194Z,8.10
2018-02-01T08:55:26.319Z,8.15
2018-02-01T08:57:57.360Z,8.18
2018-02-01T09:00:28.528Z,8.10
2018-02-01T09:02:59.684Z,7.98
2018-02-01T09:05:30.755Z,8.10
2018-02-01T09:08:01.885Z,8.20
2018-02-01T09:10:32.998Z,8.23
2018-02-01T09:13:04.141Z,8.15
2018-02-01T09:15:35.259Z,8.03
2018-02-01T09:18:06.364Z,7.92
2018-02-01T09:20:37.427Z,7.93
2018-02-01T09:23:08.498Z,7.93
2018-02-01T09:25:39.582Z,7.86
2018-02-01T09:28:10.910Z,7.87
2018-02-01T09:30:42.021Z,7.94
2018-02-01T09:33:13.090Z,8.05
2018-02-01T09:35:44.190Z,8.09
2018-02-01T09:38:15.287Z,8.14
2018-02-01T09:40:46.416Z,8.08
2018-02-01T09:43:17.479Z,7.97
2018-02-01T09:45:48.586Z,7.86
2018-02-01T09:48:19.619Z,7.95
2018-02-01T09:50:50.730Z,8.04
2018-02-01T09:53:21.849Z,7.94
2018-02-01T09:55:52.990Z,8.07
2018-02-01T09:58:24.051Z,8.11
2018-02-01T10:00:55.180Z,8.18
2018-02-01T10:03:26.232Z,8.28
2018-02-01T10:05:57.504Z,8.40
2018-02-01T10:08:28.678Z,8.42
2018-02-01T10:10:59.748Z,8.63
2018-02-01T10:13:30.862Z,8.72
2018-02-01T10:16:01.945Z,8.69
2018-02-01T10:18:33.234Z,8.79
2018-02-01T10:21:04.336Z,8.74
2018-02-01T10:23:35.589Z,8.78
2018-02-01T10:26:06.667Z,8.84
2018-02-01T10:28:37.744Z,8.88
2018-02-01T10:31:08.840Z,9.03
2018-02-01T10:33:39.928Z,9.08
2018-02-01T10:36:10.993Z,9.19
2018-02-01T10:38:42.132Z,9.34
2018-02-01T10:41:13.203Z,9.36
2018-02-01T10:43:44.346Z,9.47
2018-02-01T10:46:15.394Z,9.37
2018-02-01T10:48:46.508Z,9.32
2018-02-01T10:51:17.550Z,9.32
2018-02-01T10:53:48.653Z,9.20
2018-02-01T10:56:19.710Z,9.19
2018-02-01T10:58:50.768Z,9.18
2018-02-01T11:01:21.838Z,9.21
2018-02-01T11:03:52.945Z,9.19
2018-02-01T11:06:24.012Z,9.21
2018-02-01T11:08:55.148Z,9.10
2018-02-01T11:11:26.185Z,9.07
2018-02-01T11:13:57.351Z,9.03
2018-02-01T11:16:28.403Z,9.10
2018-02-01T11:18:59.480Z,9.16
2018-02-01T11:21:30.533Z,9.13
2018-02-01T11:24:01.707Z,9.34
2018-02-01T11:26:32.785Z,9.38
2018-02-01T11:29:03.861Z,9.53
2018-02-01T11:31:34.961Z,9.68
2018-02-01T11:34:06.053Z,9.64
2018-02-01T11:36:37.155Z,9.67
2018-02-01T11:39:08.280Z,9.83
2018-02-01T11:41:39.311Z,10.03
2018-02-01T11:44:10.425Z,9.86
2018-02-01T11:46:41.512Z,9.83
2018-02-01T11:49:12.623Z,9.79
2018-02-01T11:51:43.706Z,9.89
2018-02-01T11:54:14.814Z,9.96
2018-02-01T11:56:45.895Z,10.29
2018-02-01T11:59:17.025Z,10.60
2018-02-01T12:01:48.108Z,10.57
2018-02-01T12:04:19.260Z,10.59
2018-02-01T12:06:50.328Z,10.66
2018-02-01T12:09:21.392Z,10.60
2018-02-01T12:12:07.432Z,10.44
2018-02-01T12:14:38.465Z,10.34
2018-02-01T12:17:09.528Z,10.28
2018-02-01T12:19:40.611Z,9.98
2018-02-01T12:22:11.727Z,9.73
2018-02-01T12:24:42.812Z,9.55
2018-02-01T12:27:14.016Z,9.47
2018-02-01T12:29:45.048Z,9.48
2018-02-01T12:32:16.264Z,9.34
2018-02-01T12:34:47.331Z,9.19
2018-02-01T12:37:18.451Z,9.03
2018-02-01T12:39:49.508Z,8.91
2018-02-01T12:42:20.638Z,9.05
2018-02-01T12:44:51.697Z,9.18
2018-02-01T12:47:22.807Z,9.28
2018-02-01T12:49:53.868Z,9.43
2018-02-01T12:52:25.020Z,9.53
2018-02-01T12:54:56.184Z,9.64
2018-02-01T12:57:27.240Z,9.64
2018-02-01T12:59:58.335Z,9.73
2018-02-01T13:02:29.393Z,9.81
2018-02-01T13:05:00.499Z,9.75
2018-02-01T13:07:31.590Z,9.70
2018-02-01T13:10:02.735Z,9.85
2018-02-01T13:12:33.849Z,9.77
2018-02-01T13:15:04.897Z,9.65
2018-02-01T13:17:35.997Z,9.54
2018-02-01T13:20:07.114Z,9.51
2018-02-01T13:22:38.209Z,9.45
2018-02-01T13:25:09.294Z,9.34
2018-02-01T13:27:40.372Z,9.32
2018-02-01T13:30:11.472Z,9.29
2018-02-01T13:32:42.682Z,9.25
2018-02-01T13:35:13.850Z,9.17
2018-02-01T13:37:44.942Z,9.15
2018-02-01T13:40:16.097Z,8.96
2018-02-01T13:42:47.183Z,8.92
2018-02-01T13:45:18.329Z,8.76
2018-02-01T13:47:49.393Z,8.37
2018-02-01T13:50:20.515Z,8.03
2018-02-01T13:52:51.582Z,7.87
2018-02-01T13:55:22.698Z,7.81
2018-02-01T13:57:53.754Z,7.85
2018-02-01T14:00:24.906Z,7.82
2018-02-01T14:02:55.996Z,7.89
2018-02-01T14:05:27.098Z,7.91
2018-02-01T14:07:58.177Z,7.90
2018-02-01T14:10:29.314Z,8.05
2018-02-01T14:13:00.400Z,8.06
2018-02-01T14:15:31.540Z,8.11
2018-02-01T14:18:02.623Z,8.11
2018-02-01T14:20:33.763Z,8.10
2018-02-01T14:23:04.841Z,7.97
2018-02-01T14:25:35.969Z,8.00
2018-02-01T14:28:07.009Z,8.09
2018-02-01T14:30:38.166Z,8.13
2018-02-01T14:33:09.342Z,8.18
2018-02-01T14:35:40.424Z,8.08
2018-02-01T14:38:12.401Z,7.92
2018-02-01T14:40:43.566Z,7.90
2018-02-01T14:43:14.659Z,7.78
2018-02-01T14:45:45.757Z,7.82
2018-02-01T14:48:16.830Z,7.71
2018-02-01T14:50:47.893Z,7.63
2018-02-01T14:53:19.028Z,7.54
2018-02-01T14:55:50.119Z,7.49
2018-02-01T14:58:21.244Z,7.52
2018-02-01T15:00:52.368Z,7.49
2018-02-01T15:03:23.444Z,7.51
2018-02-01T15:05:54.566Z,7.43
2018-02-01T15:08:25.635Z,7.32
2018-02-01T15:10:56.836Z,7.21
2018-02-01T15:13:28.019Z,7.33
2018-02-01T15:15:59.158Z,7.36
2018-02-01T15:18:30.244Z,7.44
2018-02-01T15:21:01.363Z,7.40
2018-02-01T15:23:32.428Z,7.38
2018-02-01T15:26:03.544Z,7.29
2018-02-01T15:28:34.631Z,7.16
2018-02-01T15:31:05.800Z,7.14
2018-02-01T15:33:36.840Z,7.19
2018-02-01T15:36:07.967Z,7.22
2018-02-01T15:38:39.046Z,7.30
2018-02-01T15:41:10.171Z,7.38
2018-02-01T15:43:41.291Z,7.34
2018-02-01T15:46:12.360Z,7.24
2018-02-01T15:48:43.434Z,7.16
2018-02-01T15:51:14.543Z,7.13
2018-02-01T15:53:45.587Z,7.17
2018-02-01T15:56:16.771Z,7.17
2018-02-01T15:58:47.878Z,7.12
2018-02-01T16:01:19.008Z,7.07
2018-02-01T16:03:50.151Z,7.04
2018-02-01T16:06:21.165Z,6.89
2018-02-01T16:08:52.256Z,6.92
2018-02-01T16:11:23.342Z,6.90
2018-02-01T16:13:54.453Z,6.88
2018-02-01T16:16:25.574Z,6.85
2018-02-01T16:18:56.678Z,6.83
2018-02-01T16:21:27.761Z,6.87
2018-02-01T16:23:58.869Z,6.80
2018-02-01T16:26:29.943Z,6.77
2018-02-01T16:29:01.032Z,6.71
2018-02-01T16:31:32.090Z,6.67
2018-02-01T16:34:03.188Z,6.68
2018-02-01T16:36:35.015Z,6.66
2018-02-01T16:39:06.148Z,6.64
2018-02-01T16:41:37.195Z,6.62
2018-02-01T16:44:08.319Z,6.64
2018-02-01T16:46:39.406Z,6.64
2018-02-01T16:49:10.596Z,6.66
2018-02-01T16:51:41.655Z,6.68
2018-02-01T16:54:12.770Z,6.70
2018-02-01T16:56:43.850Z,6.70
2018-02-01T16:59:15.009Z,6.64
2018-02-01T17:01:46.096Z,6.63
2018-02-01T17:04:17.200Z,6.63
2018-02-01T17:06:48.256Z,6.60
2018-02-01T17:09:19.343Z,6.62
2018-02-01T17:11:50.437Z,6.64
2018-02-01T17:14:21.535Z,6.67
2018-02-01T17:16:52.642Z,6.71
2018-02-01T17:19:23.674Z,6.78
2018-02-01T17:21:54.757Z,6.84
2018-02-01T17:24:25.878Z,6.89
2018-02-01T17:26:56.945Z,6.91
2018-02-01T17:29:28.058Z,6.91
2018-02-01T17:31:59.127Z,6.90
2018-02-01T17:34:30.260Z,6.88
2018-02-01T17:37:01.486Z,6.88
2018-02-01T17:39:32.583Z,6.85
2018-02-01T17:42:03.657Z,6.85
2018-02-01T17:44:34.752Z,6.87
2018-02-01T17:47:05.796Z,6.92
2018-02-01T17:49:36.916Z,6.95
2018-02-01T17:52:07.981Z,6.97
2018-02-01T17:54:39.068Z,6.98
2018-02-01T17:57:10.155Z,7.00
2018-02-01T17:59:41.259Z,7.02
2018-02-01T18:02:12.439Z,7.08
2018-02-01T18:04:43.483Z,7.13
2018-02-01T18:07:14.590Z,7.15
2018-02-01T18:09:45.652Z,7.15
2018-02-01T18:12:16.841Z,7.17
2018-02-01T18:14:47.908Z,7.16
2018-02-01T18:17:19.039Z,7.07
2018-02-01T18:19:50.150Z,7.00
2018-02-01T18:22:21.337Z,6.98
2018-02-01T18:24:52.383Z,7.00
2018-02-01T18:27:23.464Z,7.01
2018-02-01T18:29:54.503Z,7.00
2018-02-01T18:32:25.624Z,6.98
2018-02-01T18:34:56.674Z,6.95
2018-02-01T18:37:27.958Z,6.89
2018-02-01T18:39:59.001Z,6.81
2018-02-01T18:42:30.138Z,6.74
2018-02-01T18:45:01.221Z,6.56
2018-02-01T18:47:32.347Z,6.55
2018-02-01T18:50:03.481Z,6.58
2018-02-01T18:52:34.590Z,6.62
2018-02-01T18:55:05.675Z,6.66
2018-02-01T18:57:36.902Z,6.69
2018-02-01T19:00:08.002Z,6.71
2018-02-01T19:02:39.104Z,6.71
2018-02-01T19:05:10.185Z,6.73
2018-02-01T19:07:41.315Z,6.72
2018-02-01T19:10:12.406Z,6.67
2018-02-01T19:12:43.542Z,6.65
2018-02-01T19:15:14.609Z,6.63
2018-02-01T19:17:45.872Z,6.59
2018-02-01T19:20:16.932Z,6.55
2018-02-01T19:22:48.084Z,6.52
2018-02-01T19:25:19.127Z,6.48
2018-02-01T19:27:50.251Z,6.47
2018-02-01T19:30:21.335Z,6.48
2018-02-01T19:32:52.473Z,6.49
2018-02-01T19:35:23.567Z,6.49
2018-02-01T19:37:54.691Z,6.35
2018-02-01T19:40:25.741Z,6.20
2018-02-01T19:42:56.846Z,6.16
2018-02-01T19:45:27.913Z,6.19
2018-02-01T19:47:59.049Z,6.22
2018-02-01T19:50:30.118Z,6.12
2018-02-01T19:53:01.298Z,6.07
2018-02-01T19:55:32.382Z,6.01
2018-02-01T19:58:03.539Z,6.01
2018-02-01T20:00:34.633Z,6.00
2018-02-01T20:03:05.727Z,5.96
2018-02-01T20:05:36.790Z,5.90
2018-02-01T20:08:07.898Z,5.91
2018-02-01T20:10:38.980Z,5.93
2018-02-01T20:13:10.087Z,5.98
2018-02-01T20:15:41.135Z,5.99
2018-02-01T20:18:12.302Z,6.00
2018-02-01T20:20:43.365Z,5.99
2018-02-01T20:23:14.508Z,6.01
2018-02-01T20:25:45.605Z,5.97
2018-02-01T20:28:16.666Z,6.01
2018-02-01T20:30:47.738Z,6.10
2018-02-01T20:33:18.859Z,6.13
2018-02-01T20:35:49.916Z,6.12
2018-02-01T20:38:21.019Z,6.14
2018-02-01T20:40:52.070Z,6.11
2018-02-01T20:43:23.171Z,6.08
2018-02-01T20:45:54.200Z,6.13
2018-02-01T20:48:25.354Z,6.15
2018-02-01T20:50:56.417Z,6.15
2018-02-01T20:53:27.536Z,6.11
2018-02-01T20:55:58.679Z,6.02
2018-02-01T20:58:29.767Z,5.98
2018-02-01T21:01:00.862Z,6.02
2018-02-01T21:03:31.910Z,5.93
2018-02-01T21:06:03.054Z,5.93
2018-02-01T21:08:34.093Z,5.92
2018-02-01T21:11:05.284Z,5.99
2018-02-01T21:13:36.369Z,6.03
2018-02-01T21:16:07.485Z,6.04
2018-02-01T21:18:38.529Z,6.07
2018-02-01T21:21:09.619Z,5.99
2018-02-01T21:23:40.667Z,5.98
2018-02-01T21:26:11.716Z,6.00
2018-02-01T21:28:42.752Z,6.04
2018-02-01T21:31:13.905Z,5.97
2018-02-01T21:33:44.978Z,5.92
2018-02-01T21:36:16.104Z,5.84
2018-02-01T21:38:47.221Z,5.83
2018-02-01T21:41:18.292Z,5.84
2018-02-01T21:43:49.419Z,5.83
2018-02-01T21:46:20.462Z,5.83
2018-02-01T21:48:51.598Z,5.83
2018-02-01T21:51:22.662Z,5.82
2018-02-01T21:53:53.730Z,5.81
2018-02-01T21:56:24.801Z,5.76
2018-02-01T21:58:55.913Z,5.70
2018-02-01T22:01:26.977Z,5.70
2018-02-01T22:03:58.131Z,5.69
2018-02-01T22:06:29.169Z,5.69
2018-02-01T22:09:00.219Z,5.66
2018-02-01T22:11:31.254Z,5.64
2018-02-01T22:14:02.373Z,5.60
2018-02-01T22:16:33.419Z,5.58
2018-02-01T22:19:04.555Z,5.59
2018-02-01T22:21:35.641Z,5.58
2018-02-01T22:24:06.776Z,5.58
2018-02-01T22:26:37.862Z,5.56
2018-02-01T22:29:08.970Z,5.51
2018-02-01T22:31:40.031Z,5.51
2018-02-01T22:34:11.118Z,5.52
2018-02-01T22:36:42.194Z,5.48
2018-02-01T22:39:13.432Z,5.49
2018-02-01T22:41:44.518Z,5.46
2018-02-01T22:44:15.651Z,5.46
2018-02-01T22:46:46.735Z,5.49
2018-02-01T22:49:17.758Z,5.46
2018-02-01T22:51:48.903Z,5.41
2018-02-01T22:54:19.944Z,5.36
2018-02-01T22:56:51.066Z,5.32
2018-02-01T22:59:22.171Z,5.34
2018-02-01T23:01:53.282Z,5.33
2018-02-01T23:04:24.460Z,5.34
2018-02-01T23:06:55.598Z,5.36
2018-02-01T23:09:26.692Z,5.33
2018-02-01T23:11:57.793Z,5.32
2018-02-01T23:14:28.886Z,5.32
2018-02-01T23:16:59.944Z,5.28
2018-02-01T23:19:31.048Z,5.25
2018-02-01T23:22:02.123Z,5.26
2018-02-01T23:24:33.232Z,5.26
2018-02-01T23:27:04.343Z,5.29
2018-02-01T23:29:35.425Z,5.31
2018-02-01T23:32:06.542Z,5.33
2018-02-01T23:34:37.634Z,5.35
2018-02-01T23:37:08.953Z,5.33
2018-02-01T23:39:40.172Z,5.31
2018-02-01T23:42:11.221Z,5.30
2018-02-01T23:44:42.454Z,5.29
2018-02-01T23:47:13.785Z,5.21
2018-02-01T23:49:45.128Z,5.18
2018-02-01T23:52:16.167Z,5.17
2018-02-01T23:54:47.246Z,5.15
2018-02-01T23:57:18.291Z,5.11
2018-02-01T23:59:49.424Z,5.11
